Time;durP1;ratioP1;P1;durP2;ratioP2;P2;SDS_P1;SDS_P2;PMS_P1;PMS_P2;Temp;Humidity;BMP_temperature;BMP_pressure;BME280_temperature;BME280_humidity;BME280_pressure;Samples;Min_cycle;Max_cycle;Signal;HPM_P1;HPM_P2
2024/04/23 00:00:36;;;;;;;7.90;4.75;;;3.90;99.90;;;;;;5306764;26;20028;-59
2024/04/23 00:03:04;;;;;;;7.63;4.57;;;3.80;99.90;;;;;;5312439;26;20053;-58
2024/04/23 00:05:30;;;;;;;7.10;4.68;;;3.90;99.90;;;;;;5308753;26;20006;-59
2024/04/23 00:07:57;;;;;;;7.70;5.20;;;3.80;99.90;;;;;;5309458;26;20320;-59
2024/04/23 00:10:24;;;;;;;7.53;5.28;;;3.80;99.90;;;;;;5312016;26;20009;-58
2024/04/23 00:12:51;;;;;;;7.43;5.15;;;3.80;99.90;;;;;;5338706;26;20014;-55
2024/04/23 00:15:18;;;;;;;6.15;4.55;;;3.70;99.90;;;;;;5309237;26;20016;-57
2024/04/23 00:17:45;;;;;;;6.85;4.47;;;3.70;99.90;;;;;;5311370;26;20002;-58
2024/04/23 00:20:11;;;;;;;6.45;4.72;;;3.60;99.90;;;;;;5313099;26;20024;-57
2024/04/23 00:22:38;;;;;;;8.82;4.97;;;3.50;99.90;;;;;;5306746;26;20020;-57
2024/04/23 00:25:05;;;;;;;8.68;5.32;;;3.50;99.90;;;;;;5313161;26;20005;-58
2024/04/23 00:27:32;;;;;;;7.93;5.50;;;3.50;99.90;;;;;;5300851;26;20025;-57
2024/04/23 00:29:59;;;;;;;7.07;5.07;;;3.50;99.90;;;;;;5304597;26;20084;-55
2024/04/23 00:32:26;;;;;;;6.28;4.53;;;3.50;99.90;;;;;;5306850;26;20447;-60
2024/04/23 00:34:53;;;;;;;8.60;4.95;;;3.40;99.90;;;;;;5312172;26;20002;-57
2024/04/23 00:37:20;;;;;;;6.00;4.55;;;3.40;99.90;;;;;;5308424;26;20009;-58
2024/04/23 00:39:46;;;;;;;5.85;4.60;;;3.30;99.90;;;;;;5308458;26;20075;-59
2024/04/23 00:42:13;;;;;;;8.55;4.70;;;3.30;99.90;;;;;;5299151;26;20331;-57
2024/04/23 00:44:40;;;;;;;6.03;4.75;;;3.30;99.90;;;;;;5302643;26;20088;-58
2024/04/23 00:47:07;;;;;;;7.00;5.35;;;3.20;99.90;;;;;;5305567;26;20028;-59
2024/04/23 00:49:34;;;;;;;7.47;5.47;;;3.10;99.90;;;;;;5314909;26;20396;-57
2024/04/23 00:52:02;;;;;;;6.07;4.72;;;3.10;99.90;;;;;;5304287;26;20017;-59
2024/04/23 00:54:30;;;;;;;5.78;4.65;;;3.10;99.90;;;;;;5301095;26;20515;-58
2024/04/23 00:56:59;;;;;;;6.93;4.28;;;3.10;99.90;;;;;;5306321;26;20009;-58
2024/04/23 00:59:26;;;;;;;6.05;4.30;;;3.00;99.90;;;;;;5313007;26;20493;-59
2024/04/23 01:01:55;;;;;;;7.45;4.10;;;3.00;99.90;;;;;;5320047;26;20008;-57
2024/04/23 01:04:22;;;;;;;6.70;4.47;;;2.90;99.90;;;;;;5304354;26;20009;-54
2024/04/23 01:06:49;;;;;;;6.32;4.53;;;2.90;99.90;;;;;;5304224;26;20016;-60
2024/04/23 01:09:18;;;;;;;7.32;4.00;;;2.80;99.90;;;;;;5303221;26;20017;-56
2024/04/23 01:11:45;;;;;;;8.00;4.20;;;2.80;99.90;;;;;;5320817;26;20019;-57
2024/04/23 01:14:12;;;;;;;4.80;4.20;;;2.80;99.90;;;;;;5313188;26;20001;-57
2024/04/23 01:16:43;;;;;;;7.68;5.40;;;2.80;99.90;;;;;;5320889;26;20004;-59
2024/04/23 01:19:41;;;;;;;8.48;6.07;;;2.80;99.90;;;;;;5311316;26;20037;-59
2024/04/23 01:22:28;;;;;;;8.30;6.25;;;2.80;99.90;;;;;;5312725;26;20016;-58
2024/04/23 01:25:17;;;;;;;10.07;6.82;;;2.80;99.90;;;;;;5314007;26;20005;-60
2024/04/23 01:27:44;;;;;;;6.68;5.20;;;2.80;99.90;;;;;;5308565;26;20002;-60
2024/04/23 01:30:12;;;;;;;6.72;5.35;;;2.90;99.90;;;;;;5311386;26;20458;-58
2024/04/23 01:32:41;;;;;;;5.88;4.50;;;2.80;99.90;;;;;;5308742;26;20002;-57
2024/04/23 01:35:09;;;;;;;5.87;4.83;;;2.80;99.90;;;;;;5306682;26;19998;-59
2024/04/23 01:37:38;;;;;;;6.28;5.03;;;2.80;99.90;;;;;;5317918;26;20044;-58
2024/04/23 01:40:07;;;;;;;8.05;4.95;;;2.80;99.90;;;;;;5303934;26;20075;-57
2024/04/23 01:42:35;;;;;;;4.82;4.05;;;2.80;99.90;;;;;;5301700;26;20592;-58
2024/04/23 01:45:02;;;;;;;6.72;3.72;;;2.80;99.90;;;;;;5299729;26;20076;-60
2024/04/23 01:47:29;;;;;;;4.88;3.83;;;2.70;99.90;;;;;;5314525;26;20005;-56
2024/04/23 01:49:56;;;;;;;5.38;3.50;;;2.70;99.90;;;;;;5313204;26;20005;-60
2024/04/23 01:52:24;;;;;;;6.32;4.20;;;2.70;99.90;;;;;;5302301;26;20520;-60
2024/04/23 01:54:51;;;;;;;5.88;3.65;;;2.70;99.90;;;;;;5307443;26;20002;-59
2024/04/23 01:57:18;;;;;;;7.63;3.92;;;2.60;99.90;;;;;;5307100;26;20024;-60
2024/04/23 01:59:58;;;;;;;4.63;3.63;;;2.60;99.90;;;;;;5315039;26;20001;-58
2024/04/23 02:02:25;;;;;;;6.32;4.43;;;2.60;99.90;;;;;;5315336;26;20324;-60
2024/04/23 02:04:53;;;;;;;6.68;5.05;;;2.60;99.90;;;;;;5302287;26;20002;-59
2024/04/23 02:07:20;;;;;;;7.10;4.20;;;2.50;99.90;;;;;;5315639;26;20012;-59
2024/04/23 02:09:48;;;;;;;4.57;3.83;;;2.60;99.90;;;;;;5304591;26;20009;-60
2024/04/23 02:12:15;;;;;;;5.88;4.75;;;2.60;99.90;;;;;;5303057;26;20016;-60
2024/04/23 02:14:42;;;;;;;6.05;4.63;;;2.60;99.90;;;;;;5301844;27;20020;-59
2024/04/23 02:17:09;;;;;;;7.57;4.53;;;2.60;99.90;;;;;;5305634;26;20611;-58
2024/04/23 02:19:36;;;;;;;7.43;4.93;;;2.60;99.90;;;;;;5307233;26;20458;-59
2024/04/23 02:22:03;;;;;;;5.10;4.25;;;2.60;99.90;;;;;;5309411;26;20022;-58
2024/04/23 02:24:30;;;;;;;7.30;4.75;;;2.60;99.90;;;;;;5306532;26;20013;-59
2024/04/23 02:26:57;;;;;;;8.75;4.75;;;2.60;99.90;;;;;;5304789;26;20002;-57
2024/04/23 02:29:24;;;;;;;6.82;5.10;;;2.60;99.90;;;;;;5313062;26;20002;-60
2024/04/23 02:31:50;;;;;;;8.25;4.82;;;2.60;99.90;;;;;;5314571;26;20028;-60
2024/04/23 02:34:17;;;;;;;10.82;4.97;;;2.60;99.90;;;;;;5303696;26;20016;-60
2024/04/23 02:36:44;;;;;;;6.47;4.20;;;2.60;99.90;;;;;;5297910;26;20072;-57
2024/04/23 02:39:11;;;;;;;7.97;5.32;;;2.60;99.90;;;;;;5313781;26;20603;-55
2024/04/23 02:41:52;;;;;;;5.97;4.32;;;2.60;99.90;;;;;;5313261;26;20385;-59
2024/04/23 02:44:19;;;;;;;9.93;8.18;;;2.60;99.90;;;;;;5305383;26;20006;-60
2024/04/23 02:46:46;;;;;;;11.88;9.35;;;2.50;99.90;;;;;;5317227;26;20008;-59
2024/04/23 02:49:13;;;;;;;12.15;8.85;;;2.40;99.90;;;;;;5323081;26;20010;-59
2024/04/23 02:52:06;;;;;;;11.38;8.20;;;2.40;99.90;;;;;;5314201;26;20778;-59
2024/04/23 02:54:33;;;;;;;10.52;8.10;;;2.30;99.90;;;;;;5289566;26;20010;-58
2024/04/23 02:57:00;;;;;;;14.05;9.57;;;2.30;99.90;;;;;;5307256;26;20006;-59
2024/04/23 02:59:26;;;;;;;10.20;8.45;;;2.20;99.90;;;;;;5310052;26;20017;-55
2024/04/23 03:02:07;;;;;;;12.95;9.65;;;2.20;99.90;;;;;;5305829;26;20013;-59
2024/04/23 03:04:34;;;;;;;11.32;8.82;;;2.20;99.90;;;;;;5301361;26;20016;-60
2024/04/23 03:07:01;;;;;;;13.82;9.85;;;2.10;99.90;;;;;;5325695;26;20334;-56
2024/04/23 03:09:28;;;;;;;14.18;10.05;;;2.10;99.90;;;;;;5307449;26;20009;-59
2024/04/23 03:11:55;;;;;;;16.65;10.82;;;2.10;99.90;;;;;;5309197;26;20398;-59
2024/04/23 03:14:22;;;;;;;14.82;11.27;;;2.10;99.90;;;;;;5320197;26;20064;-58
2024/04/23 03:16:48;;;;;;;15.30;10.90;;;2.10;99.90;;;;;;5315168;26;20389;-57
2024/04/23 03:19:15;;;;;;;15.80;11.90;;;2.00;99.90;;;;;;5302997;26;20009;-59
2024/04/23 03:21:56;;;;;;;17.33;12.25;;;2.10;99.90;;;;;;5315640;26;20253;-60
2024/04/23 03:24:24;;;;;;;19.05;12.18;;;2.10;99.90;;;;;;5302257;26;20005;-59
2024/04/23 03:26:50;;;;;;;17.05;12.32;;;2.00;99.90;;;;;;5312990;26;20002;-60
2024/04/23 03:29:18;;;;;;;17.08;12.50;;;2.00;99.90;;;;;;5305585;26;20017;-58
2024/04/23 03:31:46;;;;;;;16.33;12.57;;;2.00;99.90;;;;;;5305307;26;20006;-59
2024/04/23 03:34:14;;;;;;;21.30;14.57;;;2.00;99.90;;;;;;5319329;26;20319;-59
2024/04/23 03:36:41;;;;;;;21.10;13.70;;;2.00;99.90;;;;;;5299124;26;20351;-60
2024/04/23 03:39:07;;;;;;;21.58;13.00;;;2.00;99.90;;;;;;5311000;26;20009;-60
2024/04/23 03:41:34;;;;;;;19.58;13.70;;;1.90;99.90;;;;;;5319539;26;20006;-57
2024/04/23 03:44:01;;;;;;;23.38;14.93;;;2.00;99.90;;;;;;5308775;26;20609;-58
2024/04/23 03:46:28;;;;;;;23.02;13.88;;;2.00;99.90;;;;;;5318009;26;20014;-59
2024/04/23 03:48:55;;;;;;;18.75;14.00;;;2.00;99.90;;;;;;5308433;26;20687;-58
2024/04/23 03:51:21;;;;;;;19.38;13.95;;;2.00;99.90;;;;;;5315681;26;20002;-60
2024/04/23 03:53:48;;;;;;;22.48;14.68;;;1.90;99.90;;;;;;5310031;26;20009;-59
2024/04/23 03:56:15;;;;;;;21.45;15.32;;;2.00;99.90;;;;;;5316098;26;20087;-59
2024/04/23 03:58:42;;;;;;;22.50;16.65;;;1.90;99.90;;;;;;5306251;26;20021;-60
2024/04/23 04:01:09;;;;;;;22.10;15.77;;;1.80;99.90;;;;;;5304133;26;20017;-60
2024/04/23 04:06:21;;;;;;;20.48;15.60;;;1.80;99.90;;;;;;5303814;26;20082;-59
2024/04/23 04:08:48;;;;;;;21.63;15.30;;;1.70;99.90;;;;;;5307246;26;20458;-57
2024/04/23 04:11:14;;;;;;;21.77;16.15;;;1.70;99.90;;;;;;5303476;26;20032;-59
2024/04/23 04:13:41;;;;;;;22.90;15.57;;;1.70;99.90;;;;;;5296671;26;20033;-57
2024/04/23 04:16:09;;;;;;;24.30;16.10;;;1.70;99.90;;;;;;5307107;26;19997;-57
2024/04/23 04:18:39;;;;;;;22.67;16.20;;;1.70;99.90;;;;;;5304438;26;20013;-59
2024/04/23 04:21:06;;;;;;;25.25;17.45;;;1.70;99.90;;;;;;5304177;26;20699;-58
2024/04/23 04:23:33;;;;;;;29.20;17.55;;;1.80;99.90;;;;;;5310506;26;20458;-59
2024/04/23 04:26:00;;;;;;;23.77;17.63;;;1.90;99.90;;;;;;5302978;26;20006;-59
2024/04/23 04:28:27;;;;;;;26.65;18.48;;;1.90;99.90;;;;;;5314251;26;20005;-59
2024/04/23 04:30:54;;;;;;;25.05;17.42;;;1.90;99.90;;;;;;5298907;26;20057;-55
2024/04/23 04:33:20;;;;;;;24.95;17.23;;;1.90;99.90;;;;;;5303785;26;20719;-60
2024/04/23 04:35:47;;;;;;;27.63;17.65;;;1.90;99.90;;;;;;5296752;26;20008;-57
2024/04/23 04:38:14;;;;;;;25.95;18.02;;;1.90;99.90;;;;;;5302097;26;20001;-58
2024/04/23 04:40:41;;;;;;;22.50;17.20;;;2.00;99.90;;;;;;5298621;26;20005;-59
2024/04/23 04:43:08;;;;;;;25.85;18.13;;;2.00;99.90;;;;;;5299219;26;20036;-60
2024/04/23 04:45:35;;;;;;;25.65;18.00;;;2.00;99.90;;;;;;5306827;26;20001;-60
2024/04/23 04:48:01;;;;;;;27.65;17.35;;;2.10;99.90;;;;;;5313513;26;20017;-58
2024/04/23 04:50:29;;;;;;;23.65;16.95;;;2.20;99.90;;;;;;5308110;26;20004;-59
2024/04/23 04:52:55;;;;;;;22.17;15.02;;;2.20;99.90;;;;;;5303470;26;20451;-60
2024/04/23 04:55:22;;;;;;;22.25;16.08;;;2.20;99.90;;;;;;5322497;26;20015;-58
2024/04/23 04:57:51;;;;;;;22.20;16.02;;;2.20;99.90;;;;;;5296226;26;20010;-60
2024/04/23 05:00:18;;;;;;;21.98;15.95;;;2.30;99.90;;;;;;5305732;26;20431;-61
2024/04/23 05:02:45;;;;;;;21.52;16.75;;;2.30;99.90;;;;;;5302387;26;20507;-59
2024/04/23 05:05:12;;;;;;;15.38;11.52;;;2.40;99.90;;;;;;5307613;26;20001;-59
2024/04/23 05:07:39;;;;;;;20.88;14.13;;;2.30;99.90;;;;;;5326387;26;19996;-59
2024/04/23 05:10:06;;;;;;;23.70;15.82;;;2.40;99.90;;;;;;5322188;26;20631;-55
2024/04/23 05:12:37;;;;;;;20.98;14.85;;;2.40;99.90;;;;;;5319665;26;19998;-60
2024/04/23 05:15:05;;;;;;;21.13;14.85;;;2.50;99.90;;;;;;5323522;26;20012;-56
2024/04/23 05:17:32;;;;;;;19.90;14.70;;;2.60;99.90;;;;;;5308117;26;20028;-55
2024/04/23 05:19:59;;;;;;;22.95;15.65;;;2.60;99.90;;;;;;5315206;26;20005;-59
2024/04/23 05:22:27;;;;;;;20.75;15.48;;;2.70;99.90;;;;;;5323583;26;20009;-56
2024/04/23 05:24:54;;;;;;;22.92;15.27;;;2.60;99.90;;;;;;5322871;26;20075;-60
2024/04/23 05:27:20;;;;;;;19.10;14.18;;;2.60;99.90;;;;;;5316840;26;20014;-59
2024/04/23 05:29:53;;;;;;;20.73;13.60;;;2.60;99.90;;;;;;5325189;26;20005;-60
2024/04/23 05:35:09;;;;;;;17.27;13.25;;;2.50;99.90;;;;;;5309890;26;20498;-60
2024/04/23 05:37:36;;;;;;;17.38;12.25;;;2.40;99.90;;;;;;5316937;26;20032;-55
2024/04/23 05:40:03;;;;;;;21.92;12.50;;;2.20;99.90;;;;;;5309613;26;20017;-60
2024/04/23 05:42:30;;;;;;;18.42;11.93;;;2.20;99.90;;;;;;5309663;26;20092;-60
2024/04/23 05:44:57;;;;;;;21.67;14.27;;;2.10;99.90;;;;;;5308653;26;20006;-60
2024/04/23 05:47:24;;;;;;;18.75;13.50;;;2.20;99.90;;;;;;5305153;26;20005;-60
2024/04/23 05:50:28;;;;;;;21.17;14.25;;;2.30;99.90;;;;;;5308957;26;20064;-59
2024/04/23 05:53:32;;;;;;;16.30;10.88;;;2.30;99.90;;;;;;5303609;26;20017;-59
2024/04/23 05:56:00;;;;;;;19.83;14.23;;;2.30;99.90;;;;;;5311243;26;20001;-58
2024/04/23 05:58:26;;;;;;;18.65;13.95;;;2.30;99.90;;;;;;5329033;26;20019;-60
2024/04/23 06:00:54;;;;;;;21.10;14.18;;;2.30;99.90;;;;;;5314205;26;20018;-59
2024/04/23 06:03:21;;;;;;;19.42;12.68;;;2.50;99.90;;;;;;5311995;26;19997;-59
2024/04/23 06:05:48;;;;;;;17.35;12.75;;;2.60;99.90;;;;;;5304481;26;20084;-58
2024/04/23 06:08:15;;;;;;;17.52;12.18;;;2.70;99.90;;;;;;5313655;26;20001;-60
2024/04/23 06:10:42;;;;;;;15.07;12.18;;;2.70;99.90;;;;;;5304418;26;20006;-60
2024/04/23 06:13:09;;;;;;;17.13;11.50;;;2.70;99.90;;;;;;5310935;26;20002;-60
2024/04/23 06:15:36;;;;;;;18.15;12.43;;;2.70;99.90;;;;;;5304181;26;20010;-59
2024/04/23 06:18:03;;;;;;;16.33;11.18;;;2.80;99.90;;;;;;5310586;26;20535;-58
2024/04/23 06:20:30;;;;;;;15.98;11.90;;;2.80;99.90;;;;;;5314275;26;20013;-58
2024/04/23 06:22:57;;;;;;;14.98;10.73;;;2.80;99.90;;;;;;5311500;26;20006;-56
2024/04/23 06:25:24;;;;;;;16.88;12.50;;;2.90;99.90;;;;;;5311919;26;20025;-59
2024/04/23 06:27:52;;;;;;;17.08;11.25;;;2.90;99.90;;;;;;5307446;26;20005;-58
2024/04/23 06:30:19;;;;;;;13.65;10.30;;;2.80;99.90;;;;;;5310590;26;20006;-58
2024/04/23 06:32:47;;;;;;;15.20;10.95;;;2.80;99.90;;;;;;5303861;21;20077;-60
2024/04/23 06:35:15;;;;;;;15.40;10.95;;;2.70;99.90;;;;;;5233293;27;20475;-60
2024/04/23 06:37:42;;;;;;;16.73;12.25;;;2.80;99.90;;;;;;5245590;27;20102;-56
2024/04/23 06:40:10;;;;;;;16.70;11.40;;;2.80;99.90;;;;;;5230215;27;20012;-57
2024/04/23 06:42:38;;;;;;;14.73;11.90;;;3.00;99.90;;;;;;5237477;27;20591;-60
2024/04/23 06:45:05;;;;;;;21.15;12.55;;;3.20;99.90;;;;;;5237231;27;20003;-60
2024/04/23 06:47:33;;;;;;;18.35;12.30;;;3.10;99.90;;;;;;5245057;27;20036;-59
2024/04/23 06:50:01;;;;;;;11.65;9.50;;;3.10;99.90;;;;;;5236212;27;20003;-62
2024/04/23 06:52:28;;;;;;;15.32;10.88;;;2.90;99.90;;;;;;5236400;27;20130;-61
2024/04/23 06:54:55;;;;;;;15.65;11.43;;;2.70;99.90;;;;;;5236526;27;20011;-55
2024/04/23 06:57:22;;;;;;;18.08;12.10;;;2.70;99.90;;;;;;5236066;27;20003;-58
2024/04/23 06:59:49;;;;;;;17.10;11.60;;;2.90;99.90;;;;;;5247626;27;20003;-59
2024/04/23 07:02:16;;;;;;;15.27;11.20;;;3.10;99.90;;;;;;5251550;27;20480;-59
2024/04/23 07:04:43;;;;;;;14.18;10.90;;;3.10;99.90;;;;;;5246180;27;20059;-55
2024/04/23 07:07:09;;;;;;;15.80;11.10;;;3.20;99.90;;;;;;5250024;27;20490;-62
2024/04/23 07:09:36;;;;;;;16.55;11.40;;;3.20;99.90;;;;;;5252033;27;20011;-57
2024/04/23 07:12:03;;;;;;;15.07;11.55;;;3.20;99.90;;;;;;5249212;27;20006;-58
2024/04/23 07:14:30;;;;;;;17.92;11.38;;;3.40;99.90;;;;;;5249328;27;20007;-62
2024/04/23 07:16:59;;;;;;;17.42;12.20;;;3.40;99.90;;;;;;5249362;27;20018;-58
2024/04/23 07:19:26;;;;;;;16.70;11.70;;;3.40;99.90;;;;;;5249915;27;20015;-60
2024/04/23 07:21:53;;;;;;;15.65;11.43;;;3.60;99.90;;;;;;5253789;27;20057;-60
2024/04/23 07:24:20;;;;;;;14.80;11.05;;;3.80;99.90;;;;;;5246955;27;20631;-60
2024/04/23 07:26:51;;;;;;;14.20;10.18;;;3.70;99.90;;;;;;5251743;27;20340;-55
2024/04/23 07:29:18;;;;;;;14.90;10.32;;;3.60;99.90;;;;;;5247027;27;20044;-63
2024/04/23 07:31:45;;;;;;;14.95;10.15;;;3.90;99.90;;;;;;5256295;27;20006;-59
2024/04/23 07:34:12;;;;;;;13.02;9.75;;;4.60;99.90;;;;;;5247490;27;20035;-61
2024/04/23 07:36:38;;;;;;;14.77;11.13;;;4.40;99.90;;;;;;5254691;27;20011;-61
2024/04/23 07:39:12;;;;;;;18.33;11.98;;;4.40;99.90;;;;;;5244453;27;20018;-60
2024/04/23 07:41:40;;;;;;;18.55;12.50;;;4.30;99.90;;;;;;5252650;27;20013;-58
2024/04/23 07:44:07;;;;;;;15.25;11.50;;;4.50;99.90;;;;;;5243851;27;20021;-59
2024/04/23 07:46:34;;;;;;;15.18;10.27;;;4.80;99.90;;;;;;5250710;27;20077;-60
2024/04/23 07:49:01;;;;;;;13.50;10.20;;;5.00;99.90;;;;;;5249433;27;20007;-63
2024/04/23 07:51:30;;;;;;;16.83;11.25;;;5.30;99.90;;;;;;5248367;27;20011;-62
2024/04/23 07:53:58;;;;;;;13.68;10.55;;;5.70;99.90;;;;;;5233174;27;20509;-62
2024/04/23 07:56:24;;;;;;;12.70;9.65;;;5.80;99.90;;;;;;5239966;27;20037;-59
2024/04/23 07:58:51;;;;;;;14.20;10.73;;;5.80;99.90;;;;;;5268207;27;20011;-60
2024/04/23 08:01:18;;;;;;;13.07;10.23;;;5.70;99.90;;;;;;5246770;27;20007;-62
2024/04/23 08:03:45;;;;;;;14.40;10.10;;;5.40;99.90;;;;;;5251404;27;20019;-61
2024/04/23 08:06:12;;;;;;;12.40;9.43;;;5.50;99.90;;;;;;5241973;27;20419;-63
2024/04/23 08:08:39;;;;;;;13.00;9.65;;;5.50;99.90;;;;;;5247291;27;20003;-62
2024/04/23 08:11:06;;;;;;;11.38;9.00;;;5.70;99.90;;;;;;5249909;27;20343;-60
2024/04/23 08:13:33;;;;;;;11.10;9.30;;;5.80;99.90;;;;;;5245796;27;20030;-61
2024/04/23 08:16:00;;;;;;;14.90;9.32;;;5.80;99.90;;;;;;5248628;27;20361;-61
2024/04/23 08:18:27;;;;;;;16.63;9.50;;;5.60;99.90;;;;;;5252453;27;20007;-61
2024/04/23 08:20:54;;;;;;;12.20;9.05;;;5.60;99.90;;;;;;5242771;27;20054;-61
2024/04/23 08:23:20;;;;;;;16.05;10.52;;;5.30;99.90;;;;;;5244349;27;20475;-60
2024/04/23 08:25:47;;;;;;;14.23;9.30;;;5.70;99.90;;;;;;5248740;27;20082;-60
2024/04/23 08:28:15;;;;;;;12.05;9.13;;;5.80;99.90;;;;;;5248432;27;20321;-61
2024/04/23 08:30:43;;;;;;;13.73;10.18;;;5.80;99.90;;;;;;5246378;27;20078;-63
2024/04/23 08:33:10;;;;;;;14.52;9.77;;;6.00;99.90;;;;;;5250608;27;20343;-60
2024/04/23 08:35:37;;;;;;;11.02;8.68;;;6.10;99.90;;;;;;5240306;27;20010;-63
2024/04/23 08:38:04;;;;;;;11.57;8.68;;;6.20;99.90;;;;;;5248911;27;19998;-59
2024/04/23 08:40:31;;;;;;;14.35;9.02;;;6.10;99.90;;;;;;5248613;27;20348;-58
2024/04/23 08:43:03;;;;;;;10.45;7.28;;;6.10;99.90;;;;;;5247548;27;20367;-60
2024/04/23 08:45:35;;;;;;;11.07;8.20;;;6.00;99.90;;;;;;5247391;27;20086;-59
2024/04/23 08:48:03;;;;;;;11.00;8.60;;;5.70;99.90;;;;;;5247870;27;20002;-59
2024/04/23 08:50:31;;;;;;;13.00;8.13;;;5.80;99.90;;;;;;5244981;27;20030;-60
2024/04/23 08:52:58;;;;;;;10.45;7.60;;;6.10;99.90;;;;;;5247373;27;20090;-59
2024/04/23 08:55:26;;;;;;;9.88;6.78;;;6.10;99.90;;;;;;5245935;27;20216;-59
2024/04/23 08:57:53;;;;;;;10.32;7.60;;;6.00;99.90;;;;;;5248986;27;20014;-61
2024/04/23 09:00:20;;;;;;;9.88;6.70;;;6.10;99.90;;;;;;5242836;27;20422;-63
2024/04/23 09:02:49;;;;;;;9.68;7.20;;;6.60;99.90;;;;;;5246695;27;20003;-58
2024/04/23 09:05:17;;;;;;;9.25;7.60;;;6.50;99.90;;;;;;5247024;27;20106;-59
2024/04/23 09:07:50;;;;;;;12.25;7.35;;;6.40;99.90;;;;;;5243630;27;20003;-60
2024/04/23 09:10:18;;;;;;;11.65;8.15;;;6.50;99.90;;;;;;5247417;27;20003;-59
2024/04/23 09:12:46;;;;;;;12.63;8.40;;;6.70;99.90;;;;;;5245975;27;20392;-60
2024/04/23 09:15:13;;;;;;;10.43;7.38;;;6.80;99.90;;;;;;5247328;27;20019;-62
2024/04/23 09:17:53;;;;;;;10.00;7.75;;;6.60;99.90;;;;;;5245627;27;20042;-58
2024/04/23 09:20:24;;;;;;;9.00;7.65;;;6.50;99.90;;;;;;5244905;27;20078;-62
2024/04/23 09:22:59;;;;;;;12.50;8.10;;;6.80;99.90;;;;;;5249792;27;20011;-64
2024/04/23 09:25:33;;;;;;;9.00;7.32;;;6.70;99.90;;;;;;5243868;27;20469;-61
2024/04/23 09:28:01;;;;;;;8.63;6.72;;;6.90;99.90;;;;;;5242281;27;20003;-62
2024/04/23 09:30:29;;;;;;;9.32;7.38;;;6.90;99.90;;;;;;5241222;27;20015;-60
2024/04/23 09:33:03;;;;;;;8.20;6.38;;;7.20;99.90;;;;;;5249477;27;19998;-61
2024/04/23 09:35:30;;;;;;;9.13;6.90;;;7.20;99.90;;;;;;5241376;27;20003;-61
2024/04/23 09:37:57;;;;;;;9.52;7.85;;;7.30;99.90;;;;;;5245297;27;20463;-61
2024/04/23 09:40:24;;;;;;;10.18;6.85;;;7.80;99.90;;;;;;5245596;27;20658;-63
2024/04/23 09:42:54;;;;;;;9.57;6.70;;;7.80;99.90;;;;;;5249782;27;20018;-62
2024/04/23 09:45:28;;;;;;;9.70;7.15;;;8.00;99.90;;;;;;5243710;27;20078;-63
2024/04/23 09:47:55;;;;;;;9.50;7.05;;;8.20;99.90;;;;;;5245071;27;19999;-62
2024/04/23 09:50:27;;;;;;;10.27;7.47;;;8.20;99.90;;;;;;5242029;27;20472;-63
2024/04/23 09:53:05;;;;;;;8.65;6.55;;;8.40;99.90;;;;;;5244236;27;20003;-62
2024/04/23 09:55:32;;;;;;;8.07;6.70;;;8.10;99.90;;;;;;5242507;27;20480;-60
2024/04/23 09:57:59;;;;;;;9.45;6.55;;;8.40;99.90;;;;;;5244729;27;20012;-62
2024/04/23 10:00:30;;;;;;;14.77;7.68;;;8.60;99.90;;;;;;5244868;27;20003;-61
2024/04/23 10:03:09;;;;;;;7.95;6.22;;;8.80;99.90;;;;;;5246369;27;20398;-62
2024/04/23 10:05:46;;;;;;;7.85;6.70;;;9.40;99.90;;;;;;5239823;27;20466;-60
2024/04/23 10:08:35;;;;;;;8.55;5.57;;;9.90;99.90;;;;;;5239924;27;20347;-59
2024/04/23 10:11:02;;;;;;;10.38;6.40;;;9.30;99.90;;;;;;5237941;27;20476;-61
2024/04/23 10:13:43;;;;;;;8.02;6.38;;;9.50;99.90;;;;;;5243785;27;20025;-61
2024/04/23 10:16:43;;;;;;;7.35;5.72;;;9.80;99.90;;;;;;5241786;27;20464;-61
2024/04/23 10:19:12;;;;;;;7.53;5.72;;;9.60;99.90;;;;;;5265425;27;20003;-58
2024/04/23 10:21:41;;;;;;;6.68;5.75;;;9.10;99.90;;;;;;5243524;27;20554;-61
2024/04/23 10:24:09;;;;;;;9.27;5.20;;;9.30;99.90;;;;;;5243941;27;20013;-60
2024/04/23 10:26:42;;;;;;;7.15;5.18;;;9.60;99.90;;;;;;5243347;27;20003;-59
2024/04/23 10:29:10;;;;;;;7.70;5.93;;;9.50;99.90;;;;;;5240429;27;20456;-61
2024/04/23 10:31:37;;;;;;;6.65;5.55;;;9.70;99.90;;;;;;5243308;27;20007;-63
2024/04/23 10:34:06;;;;;;;8.40;5.97;;;9.90;99.90;;;;;;5242842;27;20014;-64
2024/04/23 10:36:38;;;;;;;7.55;5.85;;;10.00;99.90;;;;;;5244664;27;20278;-61
2024/04/23 10:39:06;;;;;;;7.93;5.43;;;10.10;99.90;;;;;;5242062;27;20017;-59
2024/04/23 10:41:38;;;;;;;7.13;5.10;;;9.40;99.90;;;;;;5239439;27;20014;-60
2024/04/23 10:44:11;;;;;;;6.00;4.72;;;9.10;99.90;;;;;;5242990;27;20006;-60
2024/04/23 10:46:40;;;;;;;8.32;5.28;;;9.20;99.90;;;;;;5242670;27;20014;-63
2024/04/23 10:49:19;;;;;;;6.55;4.95;;;9.50;99.90;;;;;;5245226;27;20016;-63
2024/04/23 10:51:47;;;;;;;7.55;5.00;;;9.90;99.90;;;;;;5246401;27;20014;-61
2024/04/23 10:54:15;;;;;;;5.97;5.03;;;9.70;99.90;;;;;;5240404;27;20003;-60
2024/04/23 10:56:42;;;;;;;4.82;4.32;;;9.40;99.90;;;;;;5242688;27;20003;-61
2024/04/23 10:59:14;;;;;;;7.88;4.68;;;9.50;99.90;;;;;;5243241;27;20013;-59
2024/04/23 11:01:57;;;;;;;7.38;5.00;;;9.10;99.90;;;;;;5243768;27;20014;-60
2024/04/23 11:04:29;;;;;;;6.95;5.03;;;9.00;99.90;;;;;;5241948;27;20746;-60
2024/04/23 11:07:09;;;;;;;5.80;4.88;;;9.00;99.90;;;;;;5243759;27;19999;-62
2024/04/23 11:09:41;;;;;;;6.47;4.78;;;8.70;99.90;;;;;;5244157;27;20728;-62
2024/04/23 11:12:24;;;;;;;6.22;4.75;;;9.10;99.90;;;;;;5244276;27;19999;-62
2024/04/23 11:14:52;;;;;;;6.05;4.07;;;9.40;99.90;;;;;;5245584;27;20514;-62
2024/04/23 11:17:20;;;;;;;6.07;4.60;;;9.50;99.90;;;;;;5238331;27;20030;-61
2024/04/23 11:19:50;;;;;;;5.43;4.60;;;9.80;99.90;;;;;;5240152;27;20370;-62
2024/04/23 11:22:25;;;;;;;;;;;9.80;99.90;;;;;;5247641;27;20003;-62
2024/04/23 11:24:54;;;;;;;6.85;5.50;;;9.30;99.90;;;;;;5245058;27;19927;-62
2024/04/23 11:27:21;;;;;;;6.15;4.85;;;9.00;99.90;;;;;;5243226;27;20014;-62
2024/04/23 11:29:48;;;;;;;8.05;6.07;;;8.60;99.90;;;;;;5244304;27;20019;-62
2024/04/23 11:32:16;;;;;;;6.78;5.10;;;8.50;99.90;;;;;;5242917;27;20609;-61
2024/04/23 11:34:45;;;;;;;5.93;4.90;;;8.60;99.90;;;;;;5242990;27;20067;-59
2024/04/23 11:37:22;;;;;;;7.50;4.95;;;8.90;99.90;;;;;;5242301;27;20025;-61
2024/04/23 11:39:56;;;;;;;6.47;4.80;;;8.80;99.90;;;;;;5244435;27;20034;-63
2024/04/23 11:42:31;;;;;;;7.97;4.80;;;8.90;99.90;;;;;;5241307;27;20017;-62
2024/04/23 11:45:03;;;;;;;8.52;5.13;;;9.10;99.90;;;;;;5244197;27;20038;-62
2024/04/23 11:47:31;;;;;;;8.10;5.07;;;9.40;99.90;;;;;;5241547;27;20007;-61
2024/04/23 11:50:04;;;;;;;6.15;4.45;;;9.10;99.90;;;;;;5241733;27;20022;-62
2024/04/23 11:52:33;;;;;;;7.05;4.85;;;9.00;99.90;;;;;;5242232;27;20003;-62
2024/04/23 11:55:03;;;;;;;8.00;4.93;;;8.80;99.90;;;;;;5241374;27;20078;-61
2024/04/23 11:57:30;;;;;;;6.05;4.53;;;8.80;99.90;;;;;;5242093;27;20122;-60
2024/04/23 12:00:00;;;;;;;9.32;5.03;;;8.70;99.90;;;;;;5240545;27;20011;-62
2024/04/23 12:02:31;;;;;;;6.97;4.68;;;8.60;99.90;;;;;;5241923;27;20058;-61
2024/04/23 12:05:01;;;;;;;5.78;3.92;;;8.50;99.90;;;;;;5241241;27;20007;-61
2024/04/23 12:07:29;;;;;;;20.27;6.13;;;8.50;99.90;;;;;;5241746;27;20011;-62
2024/04/23 12:10:03;;;;;;;16.02;6.95;;;8.50;99.90;;;;;;5240610;27;20019;-61
2024/04/23 12:12:35;;;;;;;17.17;7.00;;;8.70;99.90;;;;;;5241201;27;20035;-60
2024/04/23 12:15:04;;;;;;;7.75;5.15;;;8.90;99.90;;;;;;5240262;27;20011;-63
2024/04/23 12:17:31;;;;;;;5.15;4.50;;;9.10;99.90;;;;;;5239485;27;20022;-63
2024/04/23 12:19:58;;;;;;;7.03;5.03;;;9.50;99.90;;;;;;5244542;27;20007;-62
2024/04/23 12:22:25;;;;;;;6.07;4.55;;;9.70;99.90;;;;;;5240095;27;20055;-62
2024/04/23 12:24:52;;;;;;;8.35;4.78;;;10.00;99.90;;;;;;5239760;27;20011;-62
2024/04/23 12:27:21;;;;;;;8.05;5.05;;;10.10;99.90;;;;;;5240116;27;20594;-61
2024/04/23 12:29:48;;;;;;;10.40;5.20;;;10.40;99.90;;;;;;5239105;27;20017;-62
2024/04/23 12:32:15;;;;;;;7.18;4.82;;;10.50;99.90;;;;;;5312631;21;20011;-60
2024/04/23 12:34:42;;;;;;;8.95;5.22;;;10.20;99.90;;;;;;5206067;27;20008;-59
2024/04/23 12:37:08;;;;;;;7.20;4.53;;;10.60;99.90;;;;;;5205960;27;20068;-62
2024/04/23 12:39:37;;;;;;;6.53;4.72;;;11.30;99.90;;;;;;5205320;27;20018;-62
2024/04/23 12:42:09;;;;;;;4.78;3.67;;;11.30;99.90;;;;;;5204770;27;20345;-62
2024/04/23 12:44:36;;;;;;;5.03;3.80;;;10.80;99.90;;;;;;5204986;27;20006;-60
2024/04/23 12:47:03;;;;;;;5.68;3.80;;;10.50;99.90;;;;;;5204647;27;20003;-61
2024/04/23 12:49:35;;;;;;;5.40;3.90;;;10.50;99.90;;;;;;5211648;27;20464;-60
2024/04/23 12:52:03;;;;;;;8.50;4.05;;;10.70;99.90;;;;;;5211865;27;20074;-60
2024/04/23 12:54:29;;;;;;;7.03;4.95;;;10.90;99.90;;;;;;5209473;27;20008;-62
2024/04/23 12:56:56;;;;;;;8.43;4.05;;;11.00;99.90;;;;;;5208474;27;20007;-61
2024/04/23 12:59:24;;;;;;;9.68;5.70;;;10.90;99.90;;;;;;5203901;27;20469;-62
2024/04/23 13:01:51;;;;;;;7.68;4.47;;;11.00;99.90;;;;;;5204075;27;20003;-59